createdAt,value
2022-12-22T00:04:40.575Z,5.37
2022-12-22T00:20:02.222Z,5.32
2022-12-22T00:35:23.947Z,5.36
2022-12-22T00:50:52.535Z,5.39
2022-12-22T01:06:14.886Z,5.36
2022-12-22T01:21:37.605Z,5.42
2022-12-22T01:36:59.312Z,5.50
2022-12-22T01:52:21.368Z,5.46
2022-12-22T02:07:55.069Z,5.45
2022-12-22T02:23:34.344Z,5.42
2022-12-22T02:39:08.642Z,5.48
2022-12-22T02:54:33.475Z,5.68
2022-12-22T03:09:55.458Z,5.86
2022-12-22T03:25:17.429Z,5.88
2022-12-22T03:40:20.618Z,5.93
2022-12-22T03:55:24.099Z,5.93
2022-12-22T04:10:45.592Z,5.90
2022-12-22T04:25:48.800Z,5.88
2022-12-22T04:40:52.011Z,5.95
2022-12-22T04:55:58.885Z,5.90
2022-12-22T05:11:03.146Z,5.92
2022-12-22T05:26:06.796Z,5.92
2022-12-22T05:41:10.101Z,5.99
2022-12-22T05:56:13.228Z,6.01
2022-12-22T06:11:18.481Z,5.98
2022-12-22T06:26:21.807Z,6.03
2022-12-22T06:41:43.640Z,6.09
2022-12-22T06:56:46.848Z,6.11
2022-12-22T07:11:50.131Z,6.07
2022-12-22T07:26:53.551Z,6.15
2022-12-22T07:42:15.424Z,6.15
2022-12-22T07:57:18.570Z,6.27
2022-12-22T08:12:21.762Z,6.25
2022-12-22T08:27:30.092Z,6.32
2022-12-22T08:42:34.071Z,6.32
2022-12-22T08:57:37.832Z,6.27
2022-12-22T09:12:41.235Z,6.34
2022-12-22T09:27:44.378Z,6.45
2022-12-22T09:42:47.568Z,6.48
2022-12-22T09:57:51.811Z,6.49
2022-12-22T10:12:58.066Z,6.58
2022-12-22T10:28:13.200Z,6.83
2022-12-22T10:43:38.556Z,6.74
2022-12-22T10:59:04.794Z,6.99
2022-12-22T11:14:43.350Z,7.23
2022-12-22T11:30:05.705Z,7.48
2022-12-22T11:45:36.326Z,7.99
2022-12-22T12:01:15.349Z,7.90
2022-12-22T12:16:40.752Z,7.71
2022-12-22T12:32:10.932Z,7.67
2022-12-22T12:47:32.153Z,7.81
2022-12-22T13:02:38.121Z,7.71
2022-12-22T13:17:49.545Z,7.65
2022-12-22T13:32:54.015Z,7.63
2022-12-22T13:48:01.046Z,7.45
2022-12-22T14:03:41.850Z,7.34
2022-12-22T14:18:42.510Z,7.27
2022-12-22T14:34:05.636Z,7.18
2022-12-22T14:49:19.148Z,7.12
2022-12-22T15:04:22.791Z,7.08
2022-12-22T15:19:32.779Z,7.05
2022-12-22T15:34:35.979Z,7.08
2022-12-22T15:49:40.156Z,7.06
2022-12-22T16:04:43.501Z,7.03
2022-12-22T16:19:47.645Z,7.05
2022-12-22T16:34:51.324Z,7.00
2022-12-22T16:49:55.936Z,7.03
2022-12-22T17:05:01.675Z,6.99
2022-12-22T17:20:07.479Z,6.94
2022-12-22T17:35:19.574Z,6.84
2022-12-22T17:50:24.138Z,6.89
2022-12-22T18:05:40.318Z,6.95
2022-12-22T18:20:46.424Z,6.97
2022-12-22T18:36:25.694Z,7.06
2022-12-22T18:51:29.247Z,7.10
2022-12-22T19:06:32.625Z,7.13
2022-12-22T19:21:36.195Z,7.24
2022-12-22T19:36:39.746Z,7.25
2022-12-22T19:51:44.151Z,7.25
2022-12-22T20:06:47.600Z,7.29
2022-12-22T20:21:51.626Z,7.32
2022-12-22T20:36:55.355Z,7.35
2022-12-22T20:51:59.387Z,7.33
2022-12-22T21:07:03.467Z,7.33
2022-12-22T21:22:07.074Z,7.40
2022-12-22T21:37:18.637Z,7.48
2022-12-22T21:52:22.334Z,7.53
2022-12-22T22:07:25.702Z,7.54
2022-12-22T22:22:29.402Z,7.59
2022-12-22T22:37:32.803Z,7.60
2022-12-22T22:52:36.944Z,7.62
2022-12-22T23:07:40.275Z,7.62
2022-12-22T23:22:43.650Z,7.51
2022-12-22T23:37:47.243Z,7.56
2022-12-22T23:52:52.642Z,7.52
